Time;durP1;ratioP1;P1;durP2;ratioP2;P2;SDS_P1;SDS_P2;PMS_P1;PMS_P2;Temp;Humidity;BMP_temperature;BMP_pressure;BME280_temperature;BME280_humidity;BME280_pressure;Samples;Min_cycle;Max_cycle;Signal;HPM_P1;HPM_P2
2022/06/03 00:01:54;;;;;;;;;;;;;;;21.21;44.74;102174.06;5079425;28;19912;-77
2022/06/03 00:04:36;;;;;;;;;;;;;;;21.22;44.73;102178.41;5097293;28;19912;-77
2022/06/03 00:07:20;;;;;;;;;;;;;;;21.21;44.89;102179.28;5097426;28;19918;-77
2022/06/03 00:10:01;;;;;;;;;;;;;;;21.21;44.78;102178.41;5079264;28;19961;-77
2022/06/03 00:12:35;;;;;;;;;;;;;;;21.21;44.73;102175.78;5078825;28;19916;-78
2022/06/03 00:15:06;;;;;;;;;;;;;;;21.22;44.73;102173.16;5079130;28;19958;-79
2022/06/03 00:17:58;;;;;;;;;;;;;;;21.22;44.88;102172.31;5087712;28;19912;-80
2022/06/03 00:20:31;;;;;;;;;;;;;;;21.21;44.82;102181.00;5092403;28;19919;-80
2022/06/03 00:23:06;;;;;;;;;;;;;;;21.21;44.88;102178.41;5093359;28;19912;-79
2022/06/03 00:25:38;;;;;;;;;;;;;;;21.20;44.95;102174.06;5102316;28;19961;-79
2022/06/03 00:28:03;;;;;;;;;;;;;;;21.20;45.08;102171.44;5101642;28;20327;-79
2022/06/03 00:30:37;;;;;;;;;;;;;;;21.20;44.98;102174.06;5119793;28;19916;-79
2022/06/03 00:33:11;;;;;;;;;;;;;;;21.20;45.00;102172.28;5119778;28;19915;-78
2022/06/03 00:35:42;;;;;;;;;;;;;;;21.20;45.03;102172.28;5102269;28;19955;-79
2022/06/03 00:38:14;;;;;;;;;;;;;;;21.19;45.08;102173.19;5121332;28;19912;-79
2022/06/03 00:40:45;;;;;;;;;;;;;;;21.19;45.13;102173.19;5101439;28;19916;-79
2022/06/03 00:43:13;;;;;;;;;;;;;;;21.19;45.17;102167.97;5119722;28;20387;-79
2022/06/03 00:46:00;;;;;;;;;;;;;;;21.18;45.21;102171.44;5101014;28;19979;-79
2022/06/03 00:48:44;;;;;;;;;;;;;;;21.17;45.10;102173.19;5119229;28;19911;-79
2022/06/03 00:51:15;;;;;;;;;;;;;;;21.17;45.21;102165.34;5100908;28;19961;-79
2022/06/03 00:53:51;;;;;;;;;;;;;;;21.18;45.09;102163.56;5100245;28;19916;-78
2022/06/03 00:56:25;;;;;;;;;;;;;;;21.16;45.25;102168.84;5081553;28;19912;-78
2022/06/03 00:58:50;;;;;;;;;;;;;;;21.16;45.10;102165.31;5080616;28;19916;-80
2022/06/03 01:01:25;;;;;;;;;;;;;;;21.15;45.12;102167.09;5080548;28;19933;-80
2022/06/03 01:03:53;;;;;;;;;;;;;;;21.14;45.25;102160.13;5080086;28;19920;-80
2022/06/03 01:06:27;;;;;;;;;;;;;;;21.14;45.11;102154.88;5080237;28;19919;-78
2022/06/03 01:08:53;;;;;;;;;;;;;;;21.14;45.22;102162.75;5079181;28;20017;-80
2022/06/03 01:11:27;;;;;;;;;;;;;;;21.15;45.08;102156.63;5079066;28;19920;-78
2022/06/03 01:13:52;;;;;;;;;;;;;;;21.14;45.15;102149.66;5097171;28;19912;-78
2022/06/03 01:16:23;;;;;;;;;;;;;;;21.14;45.09;102149.66;5079471;28;20002;-79
2022/06/03 01:18:57;;;;;;;;;;;;;;;21.13;45.17;102145.28;5097368;28;20308;-78
2022/06/03 01:21:33;;;;;;;;;;;;;;;21.13;45.11;102147.88;5096562;28;19912;-78
2022/06/03 01:24:21;;;;;;;;;;;;;;;21.13;45.33;102149.66;5096519;28;20383;-78
2022/06/03 01:26:46;;;;;;;;;;;;;;;21.12;45.14;102147.88;5077746;28;19912;-78
2022/06/03 01:29:17;;;;;;;;;;;;;;;21.12;44.99;102150.50;5077579;28;19927;-78
2022/06/03 01:32:01;;;;;;;;;;;;;;;21.12;45.30;102145.28;5078213;28;20372;-79
2022/06/03 01:34:26;;;;;;;;;;;;;;;21.11;45.29;102147.03;5096322;28;19965;-78
2022/06/03 01:37:10;;;;;;;;;;;;;;;21.11;45.37;102152.25;5078719;28;19912;-78
2022/06/03 01:39:39;;;;;;;;;;;;;;;21.11;45.17;102139.16;5078408;28;19912;-78
2022/06/03 01:42:23;;;;;;;;;;;;;;;21.12;45.31;102142.66;5077117;28;19963;-77
2022/06/03 01:44:51;;;;;;;;;;;;;;;21.11;45.24;102139.16;5096082;28;19912;-79
2022/06/03 01:47:39;;;;;;;;;;;;;;;21.09;45.18;102132.22;5077627;28;19963;-77
2022/06/03 01:50:13;;;;;;;;;;;;;;;21.10;45.25;102126.97;5066837;28;19912;-77
2022/06/03 01:52:39;;;;;;;;;;;;;;;21.09;45.39;102130.47;5096374;28;19917;-77
2022/06/03 01:55:13;;;;;;;;;;;;;;;21.10;45.32;102139.16;5095847;28;19978;-77
2022/06/03 01:57:59;;;;;;;;;;;;;;;21.10;45.16;102133.94;5078755;28;19912;-78
2022/06/03 02:00:31;;;;;;;;;;;;;;;21.09;45.33;102122.59;5079608;28;19912;-77
2022/06/03 02:03:15;;;;;;;;;;;;;;;21.09;45.33;102119.13;5079010;28;19919;-77
2022/06/03 02:05:59;;;;;;;;;;;;;;;21.09;45.31;102117.38;5078991;28;20387;-78
2022/06/03 02:08:44;;;;;;;;;;;;;;;21.09;45.36;102116.50;5096931;28;19970;-77
2022/06/03 02:11:15;;;;;;;;;;;;;;;21.07;45.35;102115.63;5078936;28;19926;-78
2022/06/03 02:13:46;;;;;;;;;;;;;;;21.08;45.25;102110.41;5078321;28;19960;-77
2022/06/03 02:16:41;;;;;;;;;;;;;;;21.09;45.40;102106.91;5096537;28;19976;-78
2022/06/03 02:19:22;;;;;;;;;;;;;;;21.07;45.45;102106.03;5078417;28;19920;-78
2022/06/03 02:22:06;;;;;;;;;;;;;;;21.08;45.41;102104.31;5077840;28;19912;-78
2022/06/03 02:24:49;;;;;;;;;;;;;;;21.08;45.41;102104.31;5077899;28;19921;-78
2022/06/03 02:27:21;;;;;;;;;;;;;;;21.07;45.39;102098.19;5077801;28;19935;-77
2022/06/03 02:33:07;;;;;;;;;;;;;;;21.06;45.38;102093.84;5095579;28;19939;-78
2022/06/03 02:35:54;;;;;;;;;;;;;;;21.06;45.38;102091.22;5077619;28;19966;-77
2022/06/03 02:38:22;;;;;;;;;;;;;;;21.06;45.38;102098.22;5077292;28;19962;-77
2022/06/03 02:41:04;;;;;;;;;;;;;;;21.05;45.51;102088.59;5077338;28;19912;-78
2022/06/03 02:43:38;;;;;;;;;;;;;;;21.05;45.47;102093.84;5095251;28;19912;-77
2022/06/03 02:46:18;;;;;;;;;;;;;;;21.05;45.49;102099.06;5076784;28;19912;-78
2022/06/03 02:48:56;;;;;;;;;;;;;;;21.05;45.36;102096.44;5077304;28;20297;-77
2022/06/03 02:51:21;;;;;;;;;;;;;;;21.06;45.41;102096.44;5094797;28;19966;-77
2022/06/03 02:54:05;;;;;;;;;;;;;;;21.05;45.43;102096.44;5095723;28;19912;-77
2022/06/03 02:56:33;;;;;;;;;;;;;;;21.04;45.43;102089.50;5080626;28;20335;-77
2022/06/03 02:59:17;;;;;;;;;;;;;;;21.05;45.26;102094.69;5080130;28;19912;-79
2022/06/03 03:02:01;;;;;;;;;;;;;;;21.04;45.40;102100.81;5080216;28;19919;-77
2022/06/03 03:04:29;;;;;;;;;;;;;;;21.04;45.30;102092.97;5080246;28;19919;-80
2022/06/03 03:07:07;;;;;;;;;;;;;;;21.04;45.39;102100.81;5102809;28;19912;-77
2022/06/03 03:09:35;;;;;;;;;;;;;;;21.04;45.40;102094.72;5104876;28;19966;-77
2022/06/03 03:12:31;;;;;;;;;;;;;;;21.04;45.33;102095.59;5085989;28;19999;-77
2022/06/03 03:15:20;;;;;;;;;;;;;;;21.04;45.43;102095.59;5102264;28;19934;-77
2022/06/03 03:18:05;;;;;;;;;;;;;;;21.04;45.30;102092.09;5037221;28;19912;-77
2022/06/03 03:20:46;;;;;;;;;;;;;;;21.03;45.27;102098.19;5101023;28;19916;-77
2022/06/03 03:23:11;;;;;;;;;;;;;;;21.02;45.37;102094.72;5082694;28;20394;-77
2022/06/03 03:25:42;;;;;;;;;;;;;;;21.03;45.33;102096.44;5082400;28;19912;-78
2022/06/03 03:28:20;;;;;;;;;;;;;;;21.03;45.31;102090.34;5081765;28;20291;-78
2022/06/03 03:30:45;;;;;;;;;;;;;;;21.02;45.42;102086.88;5082301;28;19967;-77
2022/06/03 03:33:19;;;;;;;;;;;;;;;21.02;45.41;102081.63;5100467;28;19916;-77
2022/06/03 03:35:44;;;;;;;;;;;;;;;21.03;45.41;102083.38;5099909;28;19919;-78
2022/06/03 03:38:09;;;;;;;;;;;;;;;21.03;45.43;102085.13;5081827;28;19912;-78
2022/06/03 03:40:53;;;;;;;;;;;;;;;21.03;45.22;102079.88;5083424;28;19912;-77
2022/06/03 03:43:43;;;;;;;;;;;;;;;21.03;45.41;102072.03;5080455;28;19921;-77
2022/06/03 03:46:27;;;;;;;;;;;;;;;21.02;45.43;102071.16;5080653;28;20372;-77
2022/06/03 03:49:05;;;;;;;;;;;;;;;21.02;45.41;102072.91;5080710;28;19912;-77
2022/06/03 03:51:47;;;;;;;;;;;;;;;21.03;45.36;102069.41;5081521;28;20022;-77
2022/06/03 03:54:28;;;;;;;;;;;;;;;21.03;45.33;102074.66;5081871;28;19912;-77
2022/06/03 03:57:22;;;;;;;;;;;;;;;21.02;45.39;102067.69;5099281;28;19937;-77
2022/06/03 04:00:03;;;;;;;;;;;;;;;21.02;45.45;102063.31;5081885;28;19919;-77
2022/06/03 04:02:46;;;;;;;;;;;;;;;21.02;45.28;102073.78;5081434;28;19935;-77
2022/06/03 04:05:26;;;;;;;;;;;;;;;21.02;45.38;102072.91;5080932;28;20003;-77
2022/06/03 04:08:04;;;;;;;;;;;;;;;21.03;45.16;102069.41;5081164;28;19912;-77
2022/06/03 04:10:34;;;;;;;;;;;;;;;21.02;45.44;102065.94;5081249;28;19979;-77
2022/06/03 04:13:17;;;;;;;;;;;;;;;21.03;45.21;102072.03;5079939;28;20378;-77
2022/06/03 04:16:01;;;;;;;;;;;;;;;21.04;45.21;102063.31;5079729;28;19913;-77
2022/06/03 04:18:38;;;;;;;;;;;;;;;21.03;45.24;102064.19;5079904;28;19912;-77
2022/06/03 04:21:10;;;;;;;;;;;;;;;21.03;45.33;102072.03;5080039;28;19942;-77
2022/06/03 04:23:50;;;;;;;;;;;;;;;21.04;45.25;102060.69;5079995;28;19962;-77
2022/06/03 04:26:28;;;;;;;;;;;;;;;21.05;45.04;102059.81;5080058;28;19935;-77
2022/06/03 04:28:53;;;;;;;;;;;;;;;21.03;45.04;102057.19;5080115;28;19920;-79
2022/06/03 04:31:33;;;;;;;;;;;;;;;21.03;45.25;102046.72;5079653;28;19916;-78
2022/06/03 04:34:08;;;;;;;;;;;;;;;21.03;45.13;102045.84;5079197;28;20264;-78
2022/06/03 04:36:36;;;;;;;;;;;;;;;21.04;45.00;102045.00;5080225;28;20287;-78
2022/06/03 04:39:20;;;;;;;;;;;;;;;21.06;45.09;102040.63;5082242;28;19912;-78
2022/06/03 04:41:58;;;;;;;;;;;;;;;21.10;44.92;102045.84;5081235;28;19912;-78
2022/06/03 04:44:42;;;;;;;;;;;;;;;21.19;44.77;102038.78;5079934;28;19912;-78
2022/06/03 04:47:26;;;;;;;;;;;;;;;21.31;44.87;102042.22;5079093;28;19912;-78
2022/06/03 04:50:10;;;;;;;;;;;;;;;21.48;44.45;102030.81;5079502;28;19966;-77
2022/06/03 04:52:44;;;;;;;;;;;;;;;21.61;44.11;102027.22;5078967;28;19923;-77
2022/06/03 04:55:45;;;;;;;;;;;;;;;21.72;44.02;102027.13;5078647;28;19912;-78
2022/06/03 04:58:20;;;;;;;;;;;;;;;21.82;43.83;102035.78;5078142;28;19916;-78
2022/06/03 05:01:00;;;;;;;;;;;;;;;21.91;43.72;102028.72;5077835;28;19912;-77
2022/06/03 05:03:44;;;;;;;;;;;;;;;21.97;43.45;102023.41;5077258;28;19999;-77
2022/06/03 05:06:28;;;;;;;;;;;;;;;22.04;43.32;102024.22;5077234;28;19912;-77
2022/06/03 05:09:12;;;;;;;;;;;;;;;22.11;43.50;102025.91;5095055;28;19919;-77
2022/06/03 05:11:57;;;;;;;;;;;;;;;22.15;42.90;102025.00;5057015;28;19962;-81
2022/06/03 05:14:35;;;;;;;;;;;;;;;21.83;42.91;102033.16;5058168;28;19913;-80
2022/06/03 05:17:20;;;;;;;;;;;;;;;21.67;43.57;102039.41;5070738;28;19990;-81
2022/06/03 05:19:54;;;;;;;;;;;;;;;21.64;44.02;102037.66;5068124;28;19948;-78
2022/06/03 05:22:38;;;;;;;;;;;;;;;21.62;44.24;102033.31;5068034;28;20276;-78
2022/06/03 05:25:11;;;;;;;;;;;;;;;21.61;44.03;102032.44;5096907;28;19912;-80
2022/06/03 05:27:37;;;;;;;;;;;;;;;21.64;44.01;102032.41;5098113;28;20003;-80
2022/06/03 05:30:27;;;;;;;;;;;;;;;21.65;43.89;102038.53;5100246;28;20013;-80
2022/06/03 05:32:58;;;;;;;;;;;;;;;21.67;43.77;102048.13;5079344;28;19920;-79
2022/06/03 05:35:33;;;;;;;;;;;;;;;21.70;44.18;102036.75;5098536;28;19912;-78
2022/06/03 05:37:59;;;;;;;;;;;;;;;21.73;44.05;102039.34;5093704;28;20007;-78
2022/06/03 05:40:43;;;;;;;;;;;;;;;21.75;43.97;102040.19;5093010;28;19969;-78
2022/06/03 05:43:17;;;;;;;;;;;;;;;21.77;44.24;102047.19;5093815;28;19919;-77
2022/06/03 05:46:01;;;;;;;;;;;;;;;21.79;43.91;102041.91;5075412;28;19920;-78
2022/06/03 05:48:45;;;;;;;;;;;;;;;21.80;44.12;102043.66;5074856;28;19935;-77
2022/06/03 05:51:16;;;;;;;;;;;;;;;21.80;44.15;102038.44;5093049;28;19927;-78
2022/06/03 05:53:56;;;;;;;;;;;;;;;21.83;44.41;102048.88;5093510;28;20316;-79
2022/06/03 05:56:21;;;;;;;;;;;;;;;21.87;44.12;102041.84;5075720;28;19912;-78
2022/06/03 05:58:56;;;;;;;;;;;;;;;21.94;44.15;102043.53;5075163;28;19917;-78
2022/06/03 06:01:27;;;;;;;;;;;;;;;22.29;43.10;102040.59;5087281;28;19920;-80
2022/06/03 06:04:01;;;;;;;;;;;;;;;22.13;43.44;102041.63;5084815;28;19916;-79
2022/06/03 06:06:46;;;;;;;;;;;;;;;22.14;43.27;102040.72;5092532;28;19916;-78
2022/06/03 06:09:33;;;;;;;;;;;;;;;22.14;43.32;102038.97;5057647;28;19950;-78
2022/06/03 06:12:17;;;;;;;;;;;;;;;22.18;43.39;102038.06;5057048;28;19916;-78
2022/06/03 06:14:42;;;;;;;;;;;;;;;22.23;43.07;102039.81;5060601;28;20018;-82
2022/06/03 06:17:28;;;;;;;;;;;;;;;22.27;42.88;102042.38;5059924;28;19960;-82
2022/06/03 06:19:57;;;;;;;;;;;;;;;22.27;42.96;102038.88;5057956;28;19952;-82
2022/06/03 06:22:38;;;;;;;;;;;;;;;22.29;42.85;102045.00;5061698;28;19920;-85
2022/06/03 06:25:11;;;;;;;;;;;;;;;22.26;43.35;102043.28;5065422;28;19916;-82
2022/06/03 06:34:16;;;;;;;;;;;;;;;22.21;43.15;102042.44;5115924;23;19937;-84
2022/06/03 06:36:47;;;;;;;;;;;;;;;22.20;43.17;102043.28;4992143;28;19918;-82
2022/06/03 06:39:12;;;;;;;;;;;;;;;22.19;43.41;102046.81;4994623;28;19914;-82
2022/06/03 06:41:43;;;;;;;;;;;;;;;22.18;43.40;102040.69;4989430;28;19921;-83
2022/06/03 06:44:09;;;;;;;;;;;;;;;22.19;43.13;102049.44;4986147;28;19956;-84
2022/06/03 06:46:42;;;;;;;;;;;;;;;22.20;43.34;102045.91;5006385;28;19914;-83
2022/06/03 06:49:16;;;;;;;;;;;;;;;22.19;43.28;102045.06;4986945;28;19922;-83
2022/06/03 06:51:54;;;;;;;;;;;;;;;22.21;43.31;102052.91;4985605;28;19925;-84
2022/06/03 06:54:27;;;;;;;;;;;;;;;22.21;43.22;102042.44;4986700;28;19965;-82
2022/06/03 06:57:28;;;;;;;;;;;;;;;22.23;43.21;102047.66;4984288;28;19918;-81
2022/06/03 06:59:57;;;;;;;;;;;;;;;22.22;43.25;102033.69;4907204;29;19915;-85
2022/06/03 07:02:30;;;;;;;;;;;;;;;22.25;43.06;102036.28;4968406;28;20461;-83
2022/06/03 07:05:03;;;;;;;;;;;;;;;22.24;43.16;102026.69;5000284;28;20355;-85
2022/06/03 07:07:35;;;;;;;;;;;;;;;22.24;43.07;102039.78;4982187;28;19981;-83
2022/06/03 07:10:06;;;;;;;;;;;;;;;22.26;42.93;102016.19;4982367;28;19917;-84
2022/06/03 07:12:47;;;;;;;;;;;;;;;22.25;42.90;102012.69;4982330;28;19918;-83
2022/06/03 07:15:25;;;;;;;;;;;;;;;22.25;42.90;102015.28;4999837;28;19918;-86
2022/06/03 07:20:53;;;;;;;;;;;;;;;22.29;42.77;102008.28;5002194;28;19961;-84
2022/06/03 07:23:34;;;;;;;;;;;;;;;22.30;42.97;102020.53;4982622;28;20001;-84
2022/06/03 07:26:04;;;;;;;;;;;;;;;22.31;42.69;102014.38;4982452;28;20282;-84
2022/06/03 07:28:33;;;;;;;;;;;;;;;22.33;42.58;102013.47;4981555;28;19925;-83
2022/06/03 07:30:59;;;;;;;;;;;;;;;22.36;42.41;102015.19;4982026;28;19913;-83
2022/06/03 07:33:30;;;;;;;;;;;;;;;22.34;42.72;102016.94;4998626;28;19929;-85
2022/06/03 07:35:59;;;;;;;;;;;;;;;22.40;42.55;102011.66;4980724;28;19957;-85
2022/06/03 07:38:24;;;;;;;;;;;;;;;22.38;42.58;102016.94;4980843;28;19920;-84
2022/06/03 07:40:55;;;;;;;;;;;;;;;22.40;42.49;102019.50;4980471;28;20305;-85
2022/06/03 07:43:23;;;;;;;;;;;;;;;22.41;42.16;102017.75;4981255;28;20007;-87
2022/06/03 07:45:52;;;;;;;;;;;;;;;22.41;42.49;102026.50;4980786;28;19914;-85
2022/06/03 07:48:23;;;;;;;;;;;;;;;22.43;42.32;102026.47;4980803;28;20044;-85
2022/06/03 07:50:54;;;;;;;;;;;;;;;22.45;41.93;102022.97;4998091;28;19917;-86
2022/06/03 07:53:25;;;;;;;;;;;;;;;22.47;41.93;102015.97;4998082;28;19950;-85
2022/06/03 07:55:51;;;;;;;;;;;;;;;22.45;42.08;102009.88;4980630;28;19976;-85
2022/06/03 07:58:17;;;;;;;;;;;;;;;22.47;41.85;102012.44;4980703;28;20013;-86
2022/06/03 08:00:45;;;;;;;;;;;;;;;22.45;41.78;102015.09;4964269;28;19961;-86
2022/06/03 08:03:23;;;;;;;;;;;;;;;22.46;42.03;102010.72;4980053;28;19969;-87
2022/06/03 08:05:54;;;;;;;;;;;;;;;22.49;41.94;102008.91;4980311;28;20346;-84
2022/06/03 08:11:11;;;;;;;;;;;;;;;22.46;41.82;102000.22;4998664;28;19980;-87
2022/06/03 08:13:39;;;;;;;;;;;;;;;22.49;41.96;102002.81;4980538;28;19917;-85
2022/06/03 08:16:07;;;;;;;;;;;;;;;22.51;42.00;102006.28;4980463;28;20408;-86
2022/06/03 08:18:34;;;;;;;;;;;;;;;22.47;41.98;101994.97;4980180;28;20004;-85
2022/06/03 08:21:23;;;;;;;;;;;;;;;22.49;41.96;101997.56;4980190;28;19918;-86
2022/06/03 08:23:48;;;;;;;;;;;;;;;22.46;42.00;101987.13;4953197;28;20374;-86
2022/06/03 08:26:15;;;;;;;;;;;;;;;22.47;41.69;101996.72;4964157;28;19918;-85
2022/06/03 08:28:44;;;;;;;;;;;;;;;22.44;42.04;101994.13;4980139;28;19914;-85
2022/06/03 08:31:10;;;;;;;;;;;;;;;22.44;41.90;101988.88;4997527;28;19914;-86
2022/06/03 08:33:41;;;;;;;;;;;;;;;22.45;42.15;101983.63;4980186;28;19949;-86
2022/06/03 08:36:09;;;;;;;;;;;;;;;22.45;41.83;101988.88;4980756;28;19914;-86
2022/06/03 08:38:42;;;;;;;;;;;;;;;22.40;41.99;101985.41;4985219;28;19913;-85
2022/06/03 08:41:07;;;;;;;;;;;;;;;22.40;41.75;101985.41;4989565;28;19981;-84
2022/06/03 08:43:32;;;;;;;;;;;;;;;22.37;42.26;101982.84;5008338;28;19914;-85
2022/06/03 08:46:10;;;;;;;;;;;;;;;22.38;42.13;101979.31;5007243;28;19980;-84
2022/06/03 08:48:39;;;;;;;;;;;;;;;22.38;41.91;101974.06;5014159;28;19906;-82
2022/06/03 08:51:10;;;;;;;;;;;;;;;22.39;41.75;101979.31;5003101;28;19906;-84
2022/06/03 08:53:40;;;;;;;;;;;;;;;22.41;41.84;101981.03;5020453;28;19906;-84
2022/06/03 08:56:07;;;;;;;;;;;;;;;22.34;42.00;101970.66;5020640;28;19928;-84
2022/06/03 08:58:40;;;;;;;;;;;;;;;22.33;41.98;101968.03;5003635;28;19916;-83
2022/06/03 09:01:08;;;;;;;;;;;;;;;22.36;42.12;101958.38;5000332;28;19913;-84
2022/06/03 09:03:47;;;;;;;;;;;;;;;22.35;41.87;101968.88;4993700;28;19915;-86
2022/06/03 09:06:28;;;;;;;;;;;;;;;22.32;42.22;101963.66;4980212;28;19914;-85
2022/06/03 09:08:56;;;;;;;;;;;;;;;22.31;42.00;101961.94;4997644;28;20345;-85
2022/06/03 09:11:29;;;;;;;;;;;;;;;22.28;42.21;101967.22;4979780;28;19914;-82
2022/06/03 09:13:57;;;;;;;;;;;;;;;22.26;42.27;101955.88;4980634;28;19914;-83
2022/06/03 09:16:25;;;;;;;;;;;;;;;22.27;42.33;101957.59;4998563;28;19925;-84
2022/06/03 09:19:12;;;;;;;;;;;;;;;22.25;42.37;101962.00;4980877;28;20263;-83
2022/06/03 09:21:41;;;;;;;;;;;;;;;22.23;42.50;101958.53;4984262;28;19993;-82
2022/06/03 09:24:07;;;;;;;;;;;;;;;22.22;42.35;101960.28;5000207;28;19996;-84
2022/06/03 09:26:37;;;;;;;;;;;;;;;22.23;42.17;101969.88;4985475;28;19917;-85
2022/06/03 09:29:05;;;;;;;;;;;;;;;22.23;42.36;101958.53;4984137;28;19914;-83
2022/06/03 09:31:32;;;;;;;;;;;;;;;22.22;42.38;101962.00;4966905;28;20377;-83
2022/06/03 09:33:58;;;;;;;;;;;;;;;22.19;42.61;101969.03;4966488;28;19930;-83
2022/06/03 09:36:23;;;;;;;;;;;;;;;22.21;42.40;101962.88;4983052;28;19925;-84
2022/06/03 09:39:04;;;;;;;;;;;;;;;22.18;42.55;101964.66;4982666;28;19964;-84
2022/06/03 09:41:35;;;;;;;;;;;;;;;22.16;42.42;101969.03;4988957;28;19918;-83
2022/06/03 09:44:03;;;;;;;;;;;;;;;22.16;42.60;101973.41;5004338;28;19949;-83
2022/06/03 09:46:29;;;;;;;;;;;;;;;22.13;42.50;101966.47;4986370;28;20417;-83
2022/06/03 09:48:54;;;;;;;;;;;;;;;22.13;42.56;101971.69;4987128;28;19918;-83
2022/06/03 09:54:19;;;;;;;;;;;;;;;22.12;42.54;101982.19;5009483;28;19920;-83
2022/06/03 09:56:48;;;;;;;;;;;;;;;22.13;42.55;101981.34;4990089;28;19913;-83
2022/06/03 09:59:13;;;;;;;;;;;;;;;22.14;42.14;101980.44;4975882;28;19949;-82
2022/06/03 10:01:39;;;;;;;;;;;;;;;22.10;42.19;101981.34;5011208;28;19918;-83
2022/06/03 10:04:05;;;;;;;;;;;;;;;22.08;42.49;101976.13;4987983;28;19965;-82
2022/06/03 10:06:43;;;;;;;;;;;;;;;22.08;42.43;101976.13;4989394;28;19914;-83
2022/06/03 10:14:38;;;;;;;;;;;;;;;22.08;41.63;101975.25;5016356;28;19973;-83
2022/06/03 10:17:05;;;;;;;;;;;;;;;22.07;41.41;101971.75;4996401;28;19914;-83
2022/06/03 10:19:30;;;;;;;;;;;;;;;22.07;39.93;101979.63;4996316;28;19968;-82
2022/06/03 10:21:56;;;;;;;;;;;;;;;22.07;39.30;101974.38;4999561;28;19906;-82
2022/06/03 10:24:23;;;;;;;;;;;;;;;22.05;39.13;101976.16;5506158;23;19924;-83
2022/06/03 10:26:52;;;;;;;;;;;;;;;22.03;40.23;101966.56;5290068;23;19932;-83
2022/06/03 10:29:20;;;;;;;;;;;;;;;22.02;40.91;101970.94;5003477;28;21815;-82
2022/06/03 10:31:53;;;;;;;;;;;;;;;22.04;41.03;101960.47;5019394;28;19957;-82
2022/06/03 10:34:22;;;;;;;;;;;;;;;22.06;40.34;101959.56;4999475;28;20357;-78
2022/06/03 10:36:49;;;;;;;;;;;;;;;22.06;39.13;101951.69;4996809;28;19956;-77
2022/06/03 10:39:15;;;;;;;;;;;;;;;22.05;39.14;101951.69;4997688;28;19924;-78
2022/06/03 10:41:43;;;;;;;;;;;;;;;22.05;39.16;101959.56;4998239;28;19920;-78
2022/06/03 10:44:09;;;;;;;;;;;;;;;22.04;39.89;101942.13;4997025;28;19914;-78
2022/06/03 10:46:34;;;;;;;;;;;;;;;22.05;39.16;101944.69;4997291;28;19977;-78
2022/06/03 10:49:09;;;;;;;;;;;;;;;22.05;38.93;101944.69;4997452;28;19917;-78
2022/06/03 11:02:42;;;;;;;;;;;;;;;22.00;38.79;101930.78;5015740;28;19959;-78
2022/06/03 11:05:16;;;;;;;;;;;;;;;22.02;38.71;101933.41;4997111;28;19914;-77
2022/06/03 11:07:42;;;;;;;;;;;;;;;22.01;38.66;101929.88;4996736;28;20384;-77
2022/06/03 11:10:09;;;;;;;;;;;;;;;22.02;38.72;101930.78;4996917;28;19918;-78
2022/06/03 11:12:34;;;;;;;;;;;;;;;22.03;38.82;101922.88;5014215;28;19940;-77
2022/06/03 11:14:59;;;;;;;;;;;;;;;22.05;38.60;101920.25;4981368;28;20373;-78
2022/06/03 11:17:33;;;;;;;;;;;;;;;22.06;38.77;101921.97;4999884;28;19939;-78
2022/06/03 11:19:59;;;;;;;;;;;;;;;22.07;38.56;101915.84;5000477;28;19914;-77
2022/06/03 11:22:36;;;;;;;;;;;;;;;22.05;38.21;101913.25;4984108;28;20072;-78
2022/06/03 11:25:07;;;;;;;;;;;;;;;22.02;38.01;101912.44;5000758;28;19914;-78
2022/06/03 11:27:39;;;;;;;;;;;;;;;22.03;38.04;101911.53;5000315;28;20028;-78
2022/06/03 11:30:10;;;;;;;;;;;;;;;22.04;38.20;101914.13;5017696;28;19993;-78
2022/06/03 11:32:36;;;;;;;;;;;;;;;22.05;38.70;101921.09;5000064;28;19923;-78
2022/06/03 11:35:22;;;;;;;;;;;;;;;22.07;38.02;101916.72;4999939;28;19913;-78
2022/06/03 11:37:49;;;;;;;;;;;;;;;22.08;37.81;101912.34;4999019;28;20348;-77
2022/06/03 11:40:21;;;;;;;;;;;;;;;22.08;38.35;101914.97;5000351;28;20425;-77
2022/06/03 11:42:50;;;;;;;;;;;;;;;22.08;37.80;101907.09;5000730;28;19920;-78
2022/06/03 11:45:17;;;;;;;;;;;;;;;22.07;37.76;101919.34;5006215;28;19921;-79
2022/06/03 11:47:55;;;;;;;;;;;;;;;22.07;37.98;101918.47;5005259;28;19964;-78
2022/06/03 11:50:22;;;;;;;;;;;;;;;22.09;37.46;101914.94;5002510;28;19913;-77
2022/06/03 11:52:50;;;;;;;;;;;;;;;22.08;37.61;101915.84;5002631;28;20365;-78
2022/06/03 11:55:16;;;;;;;;;;;;;;;22.08;37.85;101920.19;5001648;28;19988;-78
2022/06/03 11:57:47;;;;;;;;;;;;;;;22.10;37.95;101923.66;5002131;28;20350;-77
2022/06/03 12:00:19;;;;;;;;;;;;;;;22.07;37.92;101919.34;5001956;28;19919;-78
2022/06/03 12:03:00;;;;;;;;;;;;;;;22.09;38.17;101917.56;5018823;28;19985;-78
2022/06/03 12:05:29;;;;;;;;;;;;;;;22.12;38.07;101921.91;5000988;28;19914;-78
2022/06/03 12:07:54;;;;;;;;;;;;;;;22.11;38.49;101923.66;4999955;28;20403;-78
2022/06/03 12:10:40;;;;;;;;;;;;;;;22.11;38.55;101921.03;4999536;28;20012;-78
2022/06/03 12:13:15;;;;;;;;;;;;;;;22.11;38.71;101917.56;5000178;28;19927;-78
2022/06/03 12:15:52;;;;;;;;;;;;;;;22.13;38.11;101910.56;5000641;28;19922;-78
2022/06/03 12:18:34;;;;;;;;;;;;;;;22.12;38.47;101920.16;4999664;28;19964;-78
2022/06/03 12:21:00;;;;;;;;;;;;;;;22.14;38.05;101917.50;5017726;28;20376;-77
2022/06/03 12:23:25;;;;;;;;;;;;;;;22.14;37.88;101918.38;4999808;28;20016;-78
2022/06/03 12:26:00;;;;;;;;;;;;;;;22.14;38.76;101923.63;4999422;28;19960;-78
2022/06/03 12:28:29;;;;;;;;;;;;;;;22.17;38.31;101926.22;5000364;28;19913;-78
2022/06/03 12:31:00;;;;;;;;;;;;;;;22.15;38.55;101924.50;4998921;28;20023;-78
2022/06/03 12:33:34;;;;;;;;;;;;;;;22.14;38.31;101920.13;4998832;28;19925;-78
2022/06/03 12:35:59;;;;;;;;;;;;;;;22.15;38.44;101925.38;4998574;28;20296;-78
2022/06/03 12:38:30;;;;;;;;;;;;;;;22.14;38.59;101910.50;4998367;28;19914;-78
2022/06/03 12:40:57;;;;;;;;;;;;;;;22.18;37.97;101914.84;4998509;28;19913;-77
2022/06/03 12:43:45;;;;;;;;;;;;;;;22.21;38.45;101920.94;4998880;28;20345;-78
2022/06/03 12:46:30;;;;;;;;;;;;;;;22.18;38.86;101914.84;4991235;28;19917;-77
2022/06/03 12:48:55;;;;;;;;;;;;;;;22.19;38.50;101918.34;4999626;28;19920;-78
2022/06/03 12:51:25;;;;;;;;;;;;;;;22.22;37.63;101920.94;4999362;28;19976;-77
2022/06/03 12:53:55;;;;;;;;;;;;;;;22.21;38.13;101911.34;5016678;28;19956;-78
2022/06/03 12:56:24;;;;;;;;;;;;;;;22.19;38.73;101921.84;4998434;28;19924;-77
2022/06/03 12:58:53;;;;;;;;;;;;;;;22.22;37.85;101906.94;4998078;28;19920;-78
2022/06/03 13:01:40;;;;;;;;;;;;;;;22.25;38.13;101918.28;5015912;28;19914;-78
2022/06/03 13:04:25;;;;;;;;;;;;;;;22.23;38.51;101917.44;4998989;28;20424;-77
2022/06/03 13:07:22;;;;;;;;;;;;;;;22.23;38.22;101916.56;4999091;28;19957;-77
2022/06/03 13:10:03;;;;;;;;;;;;;;;22.23;37.55;101922.66;4966368;28;20282;-77
2022/06/03 13:12:43;;;;;;;;;;;;;;;22.26;37.48;101917.41;4999234;28;19918;-77
2022/06/03 13:15:17;;;;;;;;;;;;;;;22.25;37.13;101931.38;4998884;28;19917;-77
2022/06/03 13:17:55;;;;;;;;;;;;;;;22.26;37.83;101925.28;4998553;28;20285;-78
2022/06/03 13:20:35;;;;;;;;;;;;;;;22.26;37.66;101922.66;4998569;28;19914;-78
2022/06/03 13:23:01;;;;;;;;;;;;;;;22.28;38.39;101925.28;4998026;28;19920;-78
2022/06/03 13:25:28;;;;;;;;;;;;;;;22.27;38.08;101920.91;4997502;28;20348;-78
2022/06/03 13:28:14;;;;;;;;;;;;;;;22.30;37.96;101926.13;4997983;28;19921;-77
2022/06/03 13:30:40;;;;;;;;;;;;;;;22.31;37.21;101922.59;5004835;28;19913;-77
2022/06/03 13:33:19;;;;;;;;;;;;;;;22.29;37.93;101912.13;4997968;28;19925;-78
2022/06/03 13:36:04;;;;;;;;;;;;;;;22.31;37.64;101910.34;4997848;28;19914;-78
2022/06/03 13:38:43;;;;;;;;;;;;;;;22.30;38.09;101908.63;4997099;28;19920;-78
2022/06/03 13:44:40;;;;;;;;;;;;;;;22.33;38.00;101902.47;5015346;28;20064;-77
2022/06/03 13:47:08;;;;;;;;;;;;;;;22.32;38.06;101904.22;4997510;28;19920;-78
2022/06/03 13:49:34;;;;;;;;;;;;;;;22.34;37.43;101912.06;4997479;28;19913;-77